Portada
METAR-TAF:

METAR-TAF

Aeropuertos :

Dodge City, Kansas, Estados Unidos

latitud: 37-46-22N, longitud: 099-58-11W, altitud: 790 m

Observación

El informe se hizo hace 22 minutos, a las 06:52 UTC
Viento 17 kt del sur-sureste con ráfagas de 28 kt
Temperatura 25°C
Humedad 65%
Presión 1011 hPa
Visibilidad: 16.1 km
Cielo despejado

METAR: KDDC 070652Z AUTO 16017G28KT 10SM CLR 25/18 A2985 RMK AO2 PK WND 16028/0652 SLP070 T02500178

Hora: 02:14 (07:14 UTC)

Pronóstico

El informe se hizo hace 1 hora y 54 minutos, a las 05:20 UTC
Pronóstico válido del 07 a las 06 UTC al 08 a las 06 UTC
Viento 15 kt del sur-sureste con ráfagas de 25 kt
Visibilidad: 10 km
Nubes dispersas a una altura de 25000 ft
A partir de las 07 a las 1500 UTC
Viento 20 kt del sur con ráfagas de 30 kt
Visibilidad: 10 km
Escasas nubes a una altura de 25000 ft

TAF: KDDC 070520Z 0706/0806 16015G25KT P6SM SCT250 FM071500 18020G30KT P6SM FEW250

Observaciones y pronósticos meteorológicos de más de 4000 aeropuertos (mensajes METAR y TAF).

Los puntos amarillos y rojos representan las estaciones disponibles.

Ponga el ratón en el punto deseado para ver el nombre de la estación.

Haga clic para ver las observaciones y los pronósticos meteorológicos.

Para cambiar el mapa : haga clic en los botones verdes con una cruz de color negro para hacer un zoom, en el botón verde con un guión para alejar o en las flechas verdes para mapas adyacentes.


METAR-TAF: